Time;durP1;ratioP1;P1;durP2;ratioP2;P2;SDS_P1;SDS_P2;PMS_P1;PMS_P2;Temp;Humidity;BMP_temperature;BMP_pressure;BME280_temperature;BME280_humidity;BME280_pressure;Samples;Min_cycle;Max_cycle;Signal;HPM_P1;HPM_P2
2022/12/21 00:01:48;;;;;;;53.72;26.80;;;;;;;;;;5010834;28;20034;-73
2022/12/21 00:04:14;;;;;;;52.05;25.73;;;;;;;;;;5010827;28;20026;-73
2022/12/21 00:06:40;;;;;;;57.65;26.83;;;;;;;;;;4993721;28;20042;-73
2022/12/21 00:09:08;;;;;;;59.50;28.70;;;;;;;;;;5010246;28;20507;-74
2022/12/21 00:11:35;;;;;;;55.72;28.23;;;;;;;;;;5010991;28;20062;-74
2022/12/21 00:14:02;;;;;;;52.08;24.63;;;;;;;;;;5014290;28;20028;-74
2022/12/21 00:16:29;;;;;;;51.05;25.38;;;;;;;;;;4996874;28;20026;-75
2022/12/21 00:18:55;;;;;;;53.15;26.33;;;;;;;;;;5013314;28;20021;-74
2022/12/21 00:21:22;;;;;;;59.75;28.20;;;;;;;;;;5014283;28;20395;-73
2022/12/21 00:23:49;;;;;;;55.15;28.65;;;;;;;;;;5014097;28;20022;-74
2022/12/21 00:26:16;;;;;;;50.58;27.13;;;;;;;;;;5014119;28;20361;-73
2022/12/21 00:28:42;;;;;;;55.75;27.63;;;;;;;;;;4996023;28;20028;-73
2022/12/21 00:31:16;;;;;;;59.00;28.85;;;;;;;;;;5013909;28;20554;-76
2022/12/21 00:33:43;;;;;;;60.65;29.52;;;;;;;;;;5013930;28;20028;-76
2022/12/21 00:36:10;;;;;;;56.70;29.30;;;;;;;;;;5014075;28;20483;-74
2022/12/21 00:38:37;;;;;;;55.60;27.42;;;;;;;;;;5013527;28;20365;-74
2022/12/21 00:41:04;;;;;;;56.83;28.05;;;;;;;;;;5013581;28;20021;-74
2022/12/21 00:43:31;;;;;;;55.22;27.38;;;;;;;;;;5013972;28;20025;-73
2022/12/21 00:46:00;;;;;;;52.85;26.85;;;;;;;;;;5014187;28;20021;-74
2022/12/21 00:48:26;;;;;;;55.58;27.42;;;;;;;;;;5013092;28;20030;-73
2022/12/21 00:50:52;;;;;;;56.67;28.00;;;;;;;;;;5013477;28;20030;-73
2022/12/21 00:53:19;;;;;;;51.70;26.55;;;;;;;;;;5013467;28;20076;-73
2022/12/21 00:55:55;;;;;;;58.45;27.80;;;;;;;;;;5013369;28;20026;-73
2022/12/21 00:58:22;;;;;;;57.20;26.70;;;;;;;;;;5012996;28;20022;-73
2022/12/21 01:00:48;;;;;;;57.45;27.40;;;;;;;;;;4995658;28;20034;-73
2022/12/21 01:03:14;;;;;;;56.72;27.25;;;;;;;;;;5013393;28;20100;-73
2022/12/21 01:05:40;;;;;;;59.80;28.80;;;;;;;;;;4995742;28;20439;-73
2022/12/21 01:08:06;;;;;;;73.40;29.13;;;;;;;;;;5012552;28;20033;-73
2022/12/21 01:10:32;;;;;;;60.45;27.67;;;;;;;;;;5013588;28;20052;-74
2022/12/21 01:12:58;;;;;;;53.72;27.13;;;;;;;;;;5013159;28;20033;-75
2022/12/21 01:15:24;;;;;;;67.65;30.58;;;;;;;;;;5013290;28;20029;-75
2022/12/21 01:17:50;;;;;;;64.15;30.33;;;;;;;;;;4995036;28;20025;-74
2022/12/21 01:20:16;;;;;;;70.78;31.92;;;;;;;;;;5013472;28;20034;-74
2022/12/21 01:22:42;;;;;;;67.32;32.47;;;;;;;;;;5012659;28;20496;-75
2022/12/21 01:25:08;;;;;;;71.03;32.78;;;;;;;;;;5012297;28;20036;-75
2022/12/21 01:27:34;;;;;;;66.63;31.35;;;;;;;;;;5012424;28;20025;-72
2022/12/21 01:30:00;;;;;;;65.78;31.13;;;;;;;;;;5013167;28;20048;-74
2022/12/21 01:32:26;;;;;;;65.72;32.05;;;;;;;;;;5012779;28;20476;-73
2022/12/21 01:34:52;;;;;;;66.30;31.58;;;;;;;;;;5013164;28;20022;-74
2022/12/21 01:37:18;;;;;;;68.00;32.97;;;;;;;;;;5012052;28;20534;-75
2022/12/21 01:39:44;;;;;;;65.85;31.60;;;;;;;;;;5012840;28;20024;-74
2022/12/21 01:42:13;;;;;;;61.05;30.58;;;;;;;;;;5012701;28;20049;-74
2022/12/21 01:44:45;;;;;;;67.18;30.25;;;;;;;;;;5012906;28;20117;-74
2022/12/21 01:47:17;;;;;;;69.25;30.90;;;;;;;;;;5011983;28;20018;-75
2022/12/21 01:49:45;;;;;;;63.35;31.38;;;;;;;;;;5012422;28;20022;-73
2022/12/21 01:52:12;;;;;;;70.55;33.80;;;;;;;;;;5012613;28;20033;-73
2022/12/21 01:55:05;;;;;;;73.90;32.22;;;;;;;;;;4995034;28;20025;-75
2022/12/21 01:57:32;;;;;;;65.88;29.80;;;;;;;;;;4995489;28;20500;-74
2022/12/21 01:59:59;;;;;;;64.10;30.38;;;;;;;;;;5012627;28;20492;-75
2022/12/21 02:02:32;;;;;;;76.10;33.30;;;;;;;;;;5012080;28;20037;-75
2022/12/21 02:05:03;;;;;;;67.72;32.22;;;;;;;;;;5012017;28;20022;-74
2022/12/21 02:07:29;;;;;;;71.75;33.25;;;;;;;;;;5011858;28;20026;-74
2022/12/21 02:09:55;;;;;;;70.85;34.53;;;;;;;;;;5012366;28;20109;-74
2022/12/21 02:12:21;;;;;;;69.25;31.65;;;;;;;;;;5012113;28;20073;-73
2022/12/21 02:14:48;;;;;;;74.85;33.83;;;;;;;;;;5011886;28;20361;-74
2022/12/21 02:17:24;;;;;;;66.75;33.17;;;;;;;;;;4994085;28;20029;-74
2022/12/21 02:19:56;;;;;;;64.20;30.02;;;;;;;;;;4994799;28;20380;-74
2022/12/21 02:22:26;;;;;;;64.95;32.55;;;;;;;;;;5011964;28;20026;-74
2022/12/21 02:24:54;;;;;;;66.13;31.67;;;;;;;;;;5011904;28;20029;-75
2022/12/21 02:27:23;;;;;;;70.05;33.42;;;;;;;;;;4993656;28;20018;-73
2022/12/21 02:29:59;;;;;;;70.97;32.63;;;;;;;;;;5011910;28;20033;-74
2022/12/21 02:32:37;;;;;;;70.68;31.58;;;;;;;;;;5012128;28;20113;-73
2022/12/21 02:35:12;;;;;;;65.43;32.25;;;;;;;;;;5011497;28;20151;-74
2022/12/21 02:37:46;;;;;;;63.45;30.23;;;;;;;;;;5010859;28;20400;-74
2022/12/21 02:40:24;;;;;;;68.55;31.33;;;;;;;;;;5012206;28;20037;-74
2022/12/21 02:46:02;;;;;;;66.05;32.13;;;;;;;;;;4985090;28;20535;-73
2022/12/21 02:48:42;;;;;;;56.30;29.88;;;;;;;;;;5011349;28;20476;-73
2022/12/21 02:51:13;;;;;;;62.05;30.33;;;;;;;;;;5011639;28;20073;-73
2022/12/21 02:53:39;;;;;;;60.08;29.13;;;;;;;;;;5011509;28;20288;-73
2022/12/21 02:56:13;;;;;;;54.55;29.55;;;;;;;;;;5011635;28;20080;-74
2022/12/21 02:58:39;;;;;;;52.15;26.30;;;;;;;;;;5010764;28;20026;-74
2022/12/21 03:01:15;;;;;;;50.53;27.15;;;;;;;;;;5011574;28;20049;-73
2022/12/21 03:04:02;;;;;;;60.65;28.75;;;;;;;;;;5011279;28;20014;-74
2022/12/21 03:06:27;;;;;;;54.75;25.83;;;;;;;;;;4980510;28;20508;-74
2022/12/21 03:09:00;;;;;;;53.33;26.92;;;;;;;;;;5010319;28;20040;-74
2022/12/21 03:11:31;;;;;;;53.88;27.58;;;;;;;;;;5011492;28;20101;-74
2022/12/21 03:14:03;;;;;;;53.97;26.15;;;;;;;;;;5011344;28;20029;-74
2022/12/21 03:16:35;;;;;;;49.70;26.80;;;;;;;;;;4993713;28;20061;-74
2022/12/21 03:19:01;;;;;;;50.28;25.70;;;;;;;;;;5010431;28;20038;-74
2022/12/21 03:21:33;;;;;;;56.08;26.75;;;;;;;;;;5011197;28;20044;-74
2022/12/21 03:24:00;;;;;;;52.00;25.15;;;;;;;;;;5011009;28;20033;-74
2022/12/21 03:26:29;;;;;;;47.05;26.88;;;;;;;;;;5011140;28;20076;-74
2022/12/21 03:28:58;;;;;;;48.40;24.80;;;;;;;;;;5010633;28;20384;-74
2022/12/21 03:31:27;;;;;;;46.20;25.00;;;;;;;;;;4994034;28;20446;-74
2022/12/21 03:33:57;;;;;;;47.03;24.58;;;;;;;;;;5011190;28;20500;-74
2022/12/21 03:36:30;;;;;;;48.80;25.98;;;;;;;;;;5012351;28;20041;-74
2022/12/21 03:39:04;;;;;;;44.33;23.60;;;;;;;;;;5011218;28;20443;-73
2022/12/21 03:41:40;;;;;;;50.40;24.52;;;;;;;;;;5017122;28;20033;-73
2022/12/21 03:44:10;;;;;;;45.60;23.05;;;;;;;;;;5016193;28;20076;-73
2022/12/21 03:47:02;;;;;;;48.45;25.75;;;;;;;;;;5015974;28;20436;-72
2022/12/21 03:49:50;;;;;;;47.30;25.55;;;;;;;;;;5003885;28;20033;-74
2022/12/21 03:52:18;;;;;;;44.70;23.77;;;;;;;;;;5021165;28;20025;-75
2022/12/21 03:54:48;;;;;;;44.05;24.30;;;;;;;;;;5019613;28;20030;-75
2022/12/21 03:57:15;;;;;;;45.70;23.60;;;;;;;;;;5001361;28;20033;-74
2022/12/21 03:59:43;;;;;;;41.70;22.38;;;;;;;;;;5020241;28;20037;-75
2022/12/21 04:02:13;;;;;;;46.00;23.90;;;;;;;;;;5021281;28;20049;-73
2022/12/21 04:04:53;;;;;;;48.15;24.45;;;;;;;;;;5024893;28;20018;-73
2022/12/21 04:07:23;;;;;;;44.65;24.27;;;;;;;;;;5019238;28;20026;-79
2022/12/21 04:09:50;;;;;;;46.97;25.42;;;;;;;;;;5037119;28;20017;-77
2022/12/21 04:15:00;;;;;;;44.58;24.05;;;;;;;;;;5028515;28;20100;-74
2022/12/21 04:17:26;;;;;;;44.28;23.98;;;;;;;;;;5018258;28;20029;-78
2022/12/21 04:19:58;;;;;;;47.58;24.02;;;;;;;;;;5017085;28;20033;-74
2022/12/21 04:28:07;;;;;;;46.92;24.23;;;;;;;;;;5013956;28;20157;-75
2022/12/21 04:30:34;;;;;;;48.67;23.83;;;;;;;;;;5014328;28;20022;-75
2022/12/21 04:33:00;;;;;;;48.58;25.55;;;;;;;;;;5013895;28;20041;-74
2022/12/21 04:35:26;;;;;;;46.28;24.08;;;;;;;;;;5014025;28;20060;-75
2022/12/21 04:37:52;;;;;;;47.38;24.63;;;;;;;;;;5013517;28;20053;-78
2022/12/21 04:40:18;;;;;;;44.40;23.88;;;;;;;;;;5014006;28;20116;-77
2022/12/21 04:42:44;;;;;;;44.28;23.00;;;;;;;;;;5013862;28;20037;-74
2022/12/21 04:45:17;;;;;;;47.30;24.02;;;;;;;;;;5014475;28;20052;-75
2022/12/21 04:47:43;;;;;;;44.35;23.45;;;;;;;;;;5013524;28;20029;-74
2022/12/21 04:50:09;;;;;;;46.42;23.85;;;;;;;;;;5014198;28;20400;-72
2022/12/21 04:52:35;;;;;;;44.63;24.35;;;;;;;;;;5014139;28;20029;-73
2022/12/21 04:55:02;;;;;;;42.45;21.77;;;;;;;;;;5014191;28;20080;-73
2022/12/21 04:57:28;;;;;;;45.85;22.42;;;;;;;;;;5013627;28;20091;-72
2022/12/21 04:59:54;;;;;;;43.15;21.23;;;;;;;;;;5013361;28;20022;-74
2022/12/21 05:02:20;;;;;;;42.45;23.45;;;;;;;;;;5013846;28;20030;-72
2022/12/21 05:04:46;;;;;;;42.63;22.45;;;;;;;;;;5013884;28;20014;-73
2022/12/21 05:07:12;;;;;;;41.63;23.52;;;;;;;;;;4995973;28;20018;-73
2022/12/21 05:09:38;;;;;;;46.42;23.13;;;;;;;;;;5013990;28;20018;-74
2022/12/21 05:12:04;;;;;;;40.67;22.02;;;;;;;;;;5013966;28;20057;-74
2022/12/21 05:14:31;;;;;;;42.70;22.63;;;;;;;;;;5013789;28;20030;-74
2022/12/21 05:16:57;;;;;;;39.33;22.00;;;;;;;;;;5013480;28;20079;-79
2022/12/21 05:19:23;;;;;;;41.63;22.30;;;;;;;;;;5013225;28;20763;-73
2022/12/21 05:21:49;;;;;;;40.08;23.23;;;;;;;;;;5013427;28;20380;-75
2022/12/21 05:24:15;;;;;;;41.42;22.70;;;;;;;;;;5013058;28;20022;-74
2022/12/21 05:26:41;;;;;;;41.78;21.88;;;;;;;;;;5013130;28;20447;-76
2022/12/21 05:29:08;;;;;;;46.40;23.63;;;;;;;;;;5012985;28;20022;-73
2022/12/21 05:31:34;;;;;;;42.42;21.65;;;;;;;;;;5013328;28;20022;-75
2022/12/21 05:34:00;;;;;;;41.00;21.52;;;;;;;;;;5012876;28;20473;-73
2022/12/21 05:36:26;;;;;;;38.83;20.35;;;;;;;;;;5013063;28;20029;-74
2022/12/21 05:38:52;;;;;;;39.35;22.13;;;;;;;;;;5012075;28;20030;-75
2022/12/21 05:41:18;;;;;;;39.38;21.73;;;;;;;;;;5012919;28;20030;-75
2022/12/21 05:43:44;;;;;;;40.15;22.02;;;;;;;;;;5012961;28;20122;-74
2022/12/21 05:46:12;;;;;;;40.45;22.73;;;;;;;;;;5012867;28;20030;-74
2022/12/21 05:48:38;;;;;;;40.20;21.63;;;;;;;;;;4994749;28;20025;-74
2022/12/21 05:51:11;;;;;;;36.20;21.50;;;;;;;;;;5012784;28;20026;-78
2022/12/21 05:53:40;;;;;;;39.53;22.45;;;;;;;;;;5012409;28;20475;-74
2022/12/21 05:56:06;;;;;;;43.25;22.35;;;;;;;;;;5012873;28;20100;-72
2022/12/21 05:58:32;;;;;;;40.67;20.73;;;;;;;;;;5012102;28;20029;-74
2022/12/21 06:01:02;;;;;;;40.40;21.15;;;;;;;;;;5012506;28;20030;-79
2022/12/21 06:03:29;;;;;;;42.97;23.38;;;;;;;;;;5012853;28;20049;-74
2022/12/21 06:06:00;;;;;;;48.95;24.52;;;;;;;;;;5012364;28;20129;-81
2022/12/21 06:08:26;;;;;;;46.97;23.33;;;;;;;;;;5012114;28;20025;-77
2022/12/21 06:10:52;;;;;;;42.70;22.45;;;;;;;;;;5012851;28;20117;-75
2022/12/21 06:13:18;;;;;;;41.17;22.80;;;;;;;;;;5012792;28;20238;-74
2022/12/21 06:15:44;;;;;;;45.38;24.48;;;;;;;;;;5012769;28;20028;-74
2022/12/21 06:18:10;;;;;;;44.30;22.88;;;;;;;;;;5012188;28;20121;-74
2022/12/21 06:20:36;;;;;;;46.53;22.75;;;;;;;;;;5012423;28;20033;-75
2022/12/21 06:23:02;;;;;;;42.15;24.33;;;;;;;;;;5012175;28;20092;-75
2022/12/21 06:25:28;;;;;;;47.65;24.42;;;;;;;;;;4994754;28;20018;-75
2022/12/21 06:27:54;;;;;;;46.13;25.45;;;;;;;;;;5011801;28;20031;-74
2022/12/21 06:30:20;;;;;;;44.78;24.83;;;;;;;;;;4994890;28;20033;-76
2022/12/21 06:32:46;;;;;;;51.20;25.38;;;;;;;;;;5012607;28;20116;-74
2022/12/21 06:35:12;;;;;;;50.90;25.17;;;;;;;;;;5011937;28;20111;-75
2022/12/21 06:37:38;;;;;;;47.58;25.05;;;;;;;;;;5011601;28;20056;-73
2022/12/21 06:40:05;;;;;;;48.72;24.70;;;;;;;;;;5012060;28;20041;-75
2022/12/21 06:42:31;;;;;;;47.15;24.60;;;;;;;;;;5012107;28;20029;-75
2022/12/21 06:44:57;;;;;;;46.47;23.98;;;;;;;;;;5011730;28;20045;-70
2022/12/21 06:47:23;;;;;;;45.03;24.13;;;;;;;;;;4993915;28;20372;-74
2022/12/21 06:49:49;;;;;;;45.10;23.95;;;;;;;;;;5012059;28;20014;-76
2022/12/21 06:52:15;;;;;;;53.28;26.60;;;;;;;;;;5011675;28;20065;-74
2022/12/21 06:54:41;;;;;;;47.63;25.70;;;;;;;;;;4994186;28;20097;-75
2022/12/21 06:57:07;;;;;;;46.55;22.92;;;;;;;;;;5010964;28;20065;-71
2022/12/21 06:59:36;;;;;;;51.83;27.13;;;;;;;;;;5011831;28;20052;-74
2022/12/21 07:02:02;;;;;;;52.45;26.38;;;;;;;;;;5011933;28;20028;-75
2022/12/21 07:04:28;;;;;;;50.95;25.60;;;;;;;;;;5011831;28;20289;-74
2022/12/21 07:06:54;;;;;;;55.08;26.33;;;;;;;;;;4993960;28;20022;-75
2022/12/21 07:09:20;;;;;;;51.20;24.75;;;;;;;;;;5011524;28;20026;-74
2022/12/21 07:11:47;;;;;;;47.92;25.45;;;;;;;;;;5011789;28;20083;-74
2022/12/21 07:14:13;;;;;;;44.67;24.50;;;;;;;;;;5011886;28;20034;-73
2022/12/21 07:16:39;;;;;;;48.47;25.80;;;;;;;;;;5011546;28;20393;-75
2022/12/21 07:19:06;;;;;;;48.95;26.83;;;;;;;;;;5010626;28;20037;-74
2022/12/21 07:21:32;;;;;;;55.45;27.50;;;;;;;;;;5011475;28;20022;-75
2022/12/21 07:23:58;;;;;;;50.38;25.42;;;;;;;;;;5015319;28;20029;-75
2022/12/21 07:26:24;;;;;;;49.42;24.08;;;;;;;;;;5015892;28;20026;-74
2022/12/21 07:28:51;;;;;;;50.35;25.10;;;;;;;;;;4997241;28;20029;-78
2022/12/21 07:31:18;;;;;;;50.55;24.83;;;;;;;;;;5015540;28;20018;-76
2022/12/21 07:33:44;;;;;;;51.15;25.63;;;;;;;;;;5015310;28;20029;-73
2022/12/21 07:36:11;;;;;;;48.30;25.08;;;;;;;;;;5015391;28;20112;-73
2022/12/21 07:38:38;;;;;;;51.60;27.30;;;;;;;;;;5015146;28;20053;-79
2022/12/21 07:41:05;;;;;;;49.90;24.15;;;;;;;;;;5015078;28;20030;-75
2022/12/21 07:43:32;;;;;;;50.17;27.02;;;;;;;;;;5015152;28;20557;-75
2022/12/21 07:45:59;;;;;;;48.83;25.92;;;;;;;;;;5015102;28;20101;-75
2022/12/21 07:48:25;;;;;;;54.55;25.63;;;;;;;;;;5014611;28;20076;-74
2022/12/21 07:50:51;;;;;;;49.75;27.23;;;;;;;;;;5015291;28;20034;-77
2022/12/21 07:53:17;;;;;;;52.10;25.52;;;;;;;;;;5014867;28;20026;-77
2022/12/21 07:55:44;;;;;;;51.38;25.92;;;;;;;;;;5015153;28;20068;-74
2022/12/21 07:58:10;;;;;;;52.85;28.13;;;;;;;;;;5014473;28;20030;-73
2022/12/21 08:00:37;;;;;;;52.40;26.38;;;;;;;;;;5014994;28;20101;-73
2022/12/21 08:03:03;;;;;;;48.08;25.40;;;;;;;;;;5014586;28;20093;-74
2022/12/21 08:05:30;;;;;;;51.20;25.88;;;;;;;;;;5015254;28;20013;-80
2022/12/21 08:07:57;;;;;;;47.90;25.17;;;;;;;;;;5014539;28;20468;-75
2022/12/21 08:10:23;;;;;;;52.75;25.23;;;;;;;;;;5014818;28;20026;-76
2022/12/21 08:12:49;;;;;;;50.90;25.95;;;;;;;;;;5014470;28;20026;-79
2022/12/21 08:15:15;;;;;;;47.15;24.88;;;;;;;;;;5015004;28;20029;-74
2022/12/21 08:17:41;;;;;;;48.65;25.67;;;;;;;;;;5014627;28;20373;-76
2022/12/21 08:20:08;;;;;;;49.85;24.20;;;;;;;;;;5015082;28;20499;-75
2022/12/21 08:22:34;;;;;;;47.05;24.30;;;;;;;;;;5014752;28;20029;-76
2022/12/21 08:25:00;;;;;;;48.53;25.65;;;;;;;;;;5014601;28;20056;-78
2022/12/21 08:27:26;;;;;;;50.00;25.60;;;;;;;;;;5014317;28;20049;-74
2022/12/21 08:29:52;;;;;;;45.75;24.00;;;;;;;;;;5014839;28;20048;-76
2022/12/21 08:32:21;;;;;;;46.40;24.60;;;;;;;;;;5015315;28;20404;-75
2022/12/21 08:34:47;;;;;;;48.15;24.13;;;;;;;;;;5014199;28;20109;-77
2022/12/21 08:37:13;;;;;;;46.17;24.88;;;;;;;;;;5013959;28;20036;-76
2022/12/21 08:39:39;;;;;;;45.28;24.30;;;;;;;;;;5014949;28;20026;-75
2022/12/21 08:42:05;;;;;;;46.15;23.40;;;;;;;;;;5014448;28;20479;-75
2022/12/21 08:44:32;;;;;;;46.10;23.85;;;;;;;;;;4997147;28;20022;-75
2022/12/21 08:46:58;;;;;;;44.83;22.98;;;;;;;;;;5014271;28;20018;-76
2022/12/21 08:49:24;;;;;;;48.75;25.50;;;;;;;;;;5014014;28;20022;-75
2022/12/21 08:51:50;;;;;;;43.50;23.63;;;;;;;;;;5014442;28;20018;-74
2022/12/21 08:54:16;;;;;;;40.28;22.45;;;;;;;;;;5014588;28;20180;-76
2022/12/21 08:56:42;;;;;;;46.22;24.77;;;;;;;;;;5015442;28;20026;-77
2022/12/21 08:59:09;;;;;;;39.50;23.20;;;;;;;;;;5014928;28;20189;-75
2022/12/21 09:01:35;;;;;;;45.80;24.67;;;;;;;;;;5029934;28;20057;-77
2022/12/21 09:04:02;;;;;;;40.95;22.60;;;;;;;;;;5037501;28;20041;-82
2022/12/21 09:06:29;;;;;;;41.67;22.52;;;;;;;;;;5038203;28;20010;-80
2022/12/21 09:08:56;;;;;;;43.83;23.80;;;;;;;;;;5025134;28;20068;-77
2022/12/21 09:11:23;;;;;;;43.08;23.27;;;;;;;;;;4996656;28;20018;-74
2022/12/21 09:13:49;;;;;;;40.60;22.02;;;;;;;;;;5013799;28;20022;-74
2022/12/21 09:16:17;;;;;;;45.58;23.63;;;;;;;;;;5013577;28;20045;-76
2022/12/21 09:18:46;;;;;;;44.90;24.05;;;;;;;;;;5013238;28;20065;-75
2022/12/21 09:21:13;;;;;;;41.65;21.13;;;;;;;;;;5013627;28;20018;-75
2022/12/21 09:23:42;;;;;;;44.25;23.00;;;;;;;;;;4995987;28;20030;-75
2022/12/21 09:26:08;;;;;;;42.88;23.23;;;;;;;;;;5013551;28;20484;-77
2022/12/21 09:28:34;;;;;;;41.70;21.83;;;;;;;;;;5012856;28;20026;-76
2022/12/21 09:31:11;;;;;;;40.20;21.17;;;;;;;;;;5013428;28;20022;-72
2022/12/21 09:33:59;;;;;;;39.17;20.88;;;;;;;;;;4996008;28;20399;-76
2022/12/21 09:36:25;;;;;;;40.72;21.35;;;;;;;;;;5012903;28;20034;-75
2022/12/21 09:38:51;;;;;;;39.72;20.75;;;;;;;;;;5012188;28;20488;-74
2022/12/21 09:41:17;;;;;;;36.28;21.48;;;;;;;;;;5013447;28;20109;-75
2022/12/21 09:43:49;;;;;;;38.17;21.88;;;;;;;;;;5011941;28;20480;-75
2022/12/21 09:46:15;;;;;;;38.35;20.20;;;;;;;;;;5012291;28;20021;-75
2022/12/21 09:48:50;;;;;;;40.28;21.58;;;;;;;;;;5011567;28;20026;-74
2022/12/21 09:51:26;;;;;;;38.72;19.85;;;;;;;;;;5029114;22;20048;-76
2022/12/21 10:12:55;;;;;;;;;;;;;;;;;;;;;
2022/12/21 10:15:41;;;;;;;;;;;;;;;;;;;;;
2022/12/21 10:39:48;;;;;;;34.30;19.83;;;;;;;;;;4629635;26;20046;-75
2022/12/21 10:42:32;;;;;;;36.38;20.23;;;;;;;;;;4982896;28;20378;-76
2022/12/21 10:47:56;;;;;;;36.58;20.33;;;;;;;;;;4988887;28;20053;-75
2022/12/21 10:50:29;;;;;;;35.42;19.30;;;;;;;;;;4990227;28;20029;-76
2022/12/21 10:53:04;;;;;;;38.05;20.35;;;;;;;;;;4990823;28;20109;-74
2022/12/21 10:55:51;;;;;;;32.55;19.20;;;;;;;;;;4991015;28;20019;-76
2022/12/21 10:58:32;;;;;;;38.88;19.83;;;;;;;;;;4982585;28;20093;-75
2022/12/21 11:01:05;;;;;;;35.83;18.60;;;;;;;;;;4991405;28;20056;-75
2022/12/21 11:03:38;;;;;;;35.35;20.13;;;;;;;;;;4991953;28;20447;-76
2022/12/21 11:06:33;;;;;;;32.20;18.77;;;;;;;;;;4991874;28;20117;-75
2022/12/21 11:09:04;;;;;;;34.08;19.60;;;;;;;;;;4990569;28;20058;-76
2022/12/21 11:11:37;;;;;;;34.95;19.58;;;;;;;;;;4991454;28;20030;-79
2022/12/21 11:17:05;;;;;;;32.15;18.48;;;;;;;;;;4991589;28;20092;-76
2022/12/21 11:19:37;;;;;;;34.92;19.25;;;;;;;;;;4991661;28;20029;-75
2022/12/21 11:22:22;;;;;;;32.83;18.17;;;;;;;;;;4973686;28;20408;-75
2022/12/21 11:25:29;;;;;;;29.17;17.35;;;;;;;;;;4992524;28;20077;-76
2022/12/21 11:28:08;;;;;;;35.35;18.58;;;;;;;;;;4991740;28;20026;-76
2022/12/21 11:30:59;;;;;;;35.72;19.27;;;;;;;;;;4992002;28;20034;-76
2022/12/21 11:33:31;;;;;;;32.85;17.70;;;;;;;;;;4992028;28;20022;-76
2022/12/21 11:36:30;;;;;;;30.25;17.42;;;;;;;;;;4990705;28;20049;-75
2022/12/21 11:39:32;;;;;;;31.00;18.02;;;;;;;;;;4991395;28;20076;-77
2022/12/21 11:42:25;;;;;;;33.97;18.00;;;;;;;;;;4991850;28;20022;-75
2022/12/21 11:45:14;;;;;;;31.30;17.25;;;;;;;;;;4992291;28;20057;-76
2022/12/21 11:48:07;;;;;;;32.45;18.65;;;;;;;;;;4990146;28;20029;-77
2022/12/21 11:50:42;;;;;;;32.55;19.27;;;;;;;;;;4991801;28;20029;-76
2022/12/21 11:53:30;;;;;;;34.80;18.67;;;;;;;;;;4990054;28;20424;-76
2022/12/21 11:56:28;;;;;;;28.77;17.20;;;;;;;;;;4991724;28;20065;-76
2022/12/21 11:59:15;;;;;;;30.02;17.05;;;;;;;;;;4976872;28;20042;-75
2022/12/21 12:02:14;;;;;;;34.00;18.52;;;;;;;;;;4990523;28;20037;-75
2022/12/21 12:05:00;;;;;;;32.85;18.35;;;;;;;;;;4991384;28;20169;-76
2022/12/21 12:07:51;;;;;;;31.25;18.08;;;;;;;;;;4990331;28;20097;-78
2022/12/21 12:19:44;;;;;;;31.08;17.67;;;;;;;;;;4989749;28;20049;-78
2022/12/21 12:25:53;;;;;;;39.05;20.42;;;;;;;;;;4972655;28;20023;-80
2022/12/21 12:28:56;;;;;;;;;;;;;;;;;;;;;
2022/12/21 12:31:46;;;;;;;36.95;20.05;;;;;;;;;;4993987;28;20019;-79
2022/12/21 12:34:44;;;;;;;37.15;20.55;;;;;;;;;;4993680;28;20030;-77
2022/12/21 12:37:31;;;;;;;38.20;20.42;;;;;;;;;;4966140;28;20054;-79
2022/12/21 12:40:13;;;;;;;40.40;21.25;;;;;;;;;;4994391;28;20034;-77
2022/12/21 12:42:39;;;;;;;;;;;;;;;;;;4994551;28;20054;-78
2022/12/21 12:45:33;;;;;;;36.53;18.60;;;;;;;;;;4994785;28;19914;-77
2022/12/21 12:51:42;;;;;;;;;;;;;;;;;;;;;
2022/12/21 12:54:58;;;;;;;;;;;;;;;;;;;;;
2022/12/21 12:58:15;;;;;;;40.45;21.00;;;;;;;;;;4989525;28;20049;-76
2022/12/21 13:03:48;;;;;;;36.90;20.92;;;;;;;;;;5041755;22;20047;-77
2022/12/21 13:10:00;;;;;;;;;;;;;;;;;;;;;
2022/12/21 13:13:19;;;;;;;;;;;;;;;;;;;;;
2022/12/21 13:18:48;;;;;;;36.40;20.00;;;;;;;;;;4975900;28;20034;-76
2022/12/21 13:21:18;;;;;;;38.47;19.92;;;;;;;;;;4962126;28;20034;-75
2022/12/21 13:24:11;;;;;;;37.10;20.05;;;;;;;;;;4980207;28;20075;-76
2022/12/21 13:26:56;;;;;;;39.88;20.17;;;;;;;;;;4947018;29;20063;-78
2022/12/21 13:29:54;;;;;;;43.72;20.83;;;;;;;;;;4965075;28;20021;-76
2022/12/21 13:32:31;;;;;;;37.08;20.42;;;;;;;;;;4959819;28;20394;-78
2022/12/21 13:35:07;;;;;;;38.33;20.17;;;;;;;;;;4986539;28;20027;-77
2022/12/21 13:40:46;;;;;;;38.10;20.95;;;;;;;;;;4981236;28;20051;-76
2022/12/21 13:46:38;;;;;;;;;;;;;;;;;;;;;
2022/12/21 13:52:37;;;;;;;35.35;19.38;;;;;;;;;;4983915;28;20073;-76
2022/12/21 13:55:22;;;;;;;34.40;19.95;;;;;;;;;;4949408;28;20028;-76
2022/12/21 13:58:49;;;;;;;32.50;19.58;;;;;;;;;;4984489;28;20162;-76
2022/12/21 14:01:22;;;;;;;36.78;20.33;;;;;;;;;;5051867;22;20043;-76
2022/12/21 14:04:32;;;;;;;33.55;18.77;;;;;;;;;;4997321;28;20042;-76
2022/12/21 14:07:30;;;;;;;36.90;19.70;;;;;;;;;;4947877;28;20039;-76
2022/12/21 14:13:35;;;;;;;;;;;;;;;;;;;;;
2022/12/21 14:16:05;;;;;;;31.92;18.20;;;;;;;;;;5028206;22;20036;-77
2022/12/21 14:18:38;;;;;;;31.88;18.92;;;;;;;;;;5031689;28;20041;-73
2022/12/21 14:21:09;;;;;;;32.33;18.60;;;;;;;;;;5012819;28;20510;-73
2022/12/21 14:23:44;;;;;;;28.08;17.83;;;;;;;;;;5012201;28;20045;-73
2022/12/21 14:26:30;;;;;;;31.55;18.42;;;;;;;;;;5012542;28;20499;-76
2022/12/21 14:29:02;;;;;;;38.05;19.65;;;;;;;;;;4995025;28;20034;-76
2022/12/21 14:31:28;;;;;;;32.95;18.10;;;;;;;;;;5006628;28;20018;-74
2022/12/21 14:33:56;;;;;;;33.35;18.73;;;;;;;;;;5001312;28;20026;-76
2022/12/21 14:36:30;;;;;;;35.40;19.27;;;;;;;;;;4999353;28;20041;-75
2022/12/21 14:39:05;;;;;;;32.33;19.30;;;;;;;;;;5007929;28;20033;-73
2022/12/21 14:41:32;;;;;;;33.95;19.08;;;;;;;;;;4998392;28;20480;-74
2022/12/21 14:44:22;;;;;;;32.15;19.08;;;;;;;;;;5001468;28;20436;-75
2022/12/21 14:47:07;;;;;;;33.72;18.88;;;;;;;;;;5008169;28;20026;-76
2022/12/21 14:49:38;;;;;;;33.30;18.52;;;;;;;;;;4981300;28;20429;-75
2022/12/21 14:52:16;;;;;;;33.97;18.70;;;;;;;;;;5000868;28;20030;-74
2022/12/21 14:54:44;;;;;;;33.30;19.23;;;;;;;;;;4989859;28;20261;-74
2022/12/21 14:57:10;;;;;;;39.30;19.50;;;;;;;;;;4994917;28;20022;-74
2022/12/21 14:59:40;;;;;;;36.13;19.75;;;;;;;;;;5004622;28;20022;-74
2022/12/21 15:02:18;;;;;;;34.28;20.02;;;;;;;;;;5002802;28;20022;-74
2022/12/21 15:04:48;;;;;;;40.20;21.60;;;;;;;;;;4995328;28;20022;-75
2022/12/21 15:07:19;;;;;;;35.72;19.77;;;;;;;;;;4972128;28;20385;-75
2022/12/21 15:09:52;;;;;;;27.55;15.15;;;;;;;;;;4988594;28;20040;-75
2022/12/21 15:12:21;;;;;;;42.22;22.02;;;;;;;;;;4998965;28;20048;-74
2022/12/21 15:14:53;;;;;;;38.35;19.92;;;;;;;;;;5008059;28;20076;-75
2022/12/21 15:17:31;;;;;;;35.22;19.45;;;;;;;;;;4995746;28;20026;-78
2022/12/21 15:20:00;;;;;;;38.78;21.25;;;;;;;;;;5001364;28;20058;-73
2022/12/21 15:22:35;;;;;;;41.35;22.40;;;;;;;;;;5005464;28;20033;-72
2022/12/21 15:25:22;;;;;;;39.60;21.38;;;;;;;;;;4977299;28;20504;-74
2022/12/21 15:27:56;;;;;;;45.30;22.85;;;;;;;;;;4992544;28;20506;-74
2022/12/21 15:30:24;;;;;;;44.10;23.70;;;;;;;;;;4993086;28;20392;-73
2022/12/21 15:33:10;;;;;;;43.30;23.05;;;;;;;;;;5006129;28;20026;-73
2022/12/21 15:35:37;;;;;;;42.80;22.33;;;;;;;;;;4994699;28;20047;-74
2022/12/21 15:38:24;;;;;;;40.75;21.75;;;;;;;;;;4991237;28;20272;-73
2022/12/21 15:40:58;;;;;;;46.22;23.13;;;;;;;;;;4976473;28;20042;-73
2022/12/21 15:43:38;;;;;;;40.95;22.10;;;;;;;;;;4998403;28;20029;-74
2022/12/21 15:46:10;;;;;;;44.58;22.08;;;;;;;;;;5003838;28;20057;-73
2022/12/21 15:48:56;;;;;;;46.83;22.85;;;;;;;;;;5009687;28;20443;-75
2022/12/21 15:51:25;;;;;;;42.83;22.02;;;;;;;;;;4968752;28;20029;-77
2022/12/21 15:54:24;;;;;;;44.45;23.75;;;;;;;;;;5014918;28;20022;-73
2022/12/21 15:56:54;;;;;;;41.95;21.73;;;;;;;;;;4946279;28;20038;-78
2022/12/21 15:59:23;;;;;;;41.10;21.70;;;;;;;;;;5007523;28;20026;-76
2022/12/21 16:01:50;;;;;;;41.03;22.17;;;;;;;;;;4985267;28;20108;-74
2022/12/21 16:04:16;;;;;;;43.20;22.75;;;;;;;;;;5001854;28;20050;-75
2022/12/21 16:06:48;;;;;;;39.92;21.58;;;;;;;;;;5010599;28;20053;-74
2022/12/21 16:09:15;;;;;;;40.92;21.15;;;;;;;;;;4982673;28;20097;-73
2022/12/21 16:11:41;;;;;;;41.05;21.80;;;;;;;;;;4996871;28;20050;-76
2022/12/21 16:14:12;;;;;;;37.45;20.77;;;;;;;;;;5006735;28;20502;-75
2022/12/21 16:16:38;;;;;;;;;;;;;;;;;;4999636;28;20125;-75
2022/12/21 16:19:24;;;;;;;39.55;20.58;;;;;;;;;;5010417;28;19905;-77
2022/12/21 16:21:50;;;;;;;39.38;20.38;;;;;;;;;;5003927;28;20014;-76
2022/12/21 16:24:17;;;;;;;37.53;22.15;;;;;;;;;;5001796;28;20026;-75
2022/12/21 16:26:43;;;;;;;40.47;21.80;;;;;;;;;;4994343;28;20093;-73
2022/12/21 16:29:18;;;;;;;37.75;20.00;;;;;;;;;;5010357;28;20026;-73
2022/12/21 16:31:45;;;;;;;35.30;20.15;;;;;;;;;;5002430;28;20029;-75